Terminal Aerodrome Forecast
Issued by NWS

Home | Current Version | Previous Version | Text Only | Print | Product List | Glossary On
Versions: 1 2 3 4 5 6 7 8 9 10 11 12
000
FTUS45 KABQ 262300
TAFSAF
TAF
KSAF 262333Z 2700/2724 24006KT P6SM BKN250
     FM270230 01007KT P6SM BKN200
     FM271000 01009G16KT P6SM BKN150
     FM272000 VRB05KT P6SM BKN120=

USA.gov is the U.S. government's official web portal to all federal, state and local government web resources and services.